createdAt,value
2022-08-20T00:02:20.806Z,15.35
2022-08-20T00:04:47.103Z,15.93
2022-08-20T00:07:13.390Z,14.00
2022-08-20T00:09:39.746Z,14.38
2022-08-20T00:12:06.052Z,13.77
2022-08-20T00:14:33.943Z,13.20
2022-08-20T00:17:00.608Z,13.68
2022-08-20T00:19:27.117Z,14.88
2022-08-20T00:21:58.018Z,15.95
2022-08-20T00:24:24.862Z,13.80
2022-08-20T00:26:52.411Z,14.88
2022-08-20T00:29:19.429Z,15.07
2022-08-20T00:31:46.610Z,14.40
2022-08-20T00:34:12.904Z,15.55
2022-08-20T00:36:39.219Z,14.88
2022-08-20T00:39:05.522Z,14.07
2022-08-20T00:41:31.835Z,14.48
2022-08-20T00:43:58.118Z,15.80
2022-08-20T00:46:31.395Z,14.68
2022-08-20T00:48:58.609Z,15.02
2022-08-20T00:51:27.155Z,14.80
2022-08-20T00:53:54.500Z,15.30
2022-08-20T00:56:20.817Z,15.90
2022-08-20T00:58:47.105Z,14.70
2022-08-20T01:01:13.424Z,15.98
2022-08-20T01:03:42.254Z,17.55
2022-08-20T01:06:11.559Z,16.27
2022-08-20T01:08:37.862Z,17.13
2022-08-20T01:11:09.941Z,17.55
2022-08-20T01:13:37.304Z,16.70
2022-08-20T01:16:03.923Z,17.65
2022-08-20T01:18:31.068Z,18.13
2022-08-20T01:20:57.409Z,17.45
2022-08-20T01:23:34.712Z,18.85
2022-08-20T01:26:02.459Z,18.42
2022-08-20T01:28:28.757Z,19.10
2022-08-20T01:30:55.070Z,18.67
2022-08-20T01:33:21.425Z,19.13
2022-08-20T01:35:47.758Z,19.67
2022-08-20T01:38:14.070Z,19.10
2022-08-20T01:40:40.358Z,18.50
2022-08-20T01:43:09.047Z,17.65
2022-08-20T01:45:36.567Z,17.60
2022-08-20T01:48:06.325Z,19.20
2022-08-20T01:50:32.781Z,20.00
2022-08-20T01:52:59.954Z,19.92
2022-08-20T01:55:27.526Z,21.00
2022-08-20T01:57:53.836Z,19.48
2022-08-20T02:00:20.474Z,21.88
2022-08-20T02:02:49.141Z,20.55
2022-08-20T02:05:15.382Z,21.27
2022-08-20T02:07:41.699Z,21.55
2022-08-20T02:10:07.973Z,22.33
2022-08-20T02:12:35.173Z,20.63
2022-08-20T02:15:01.475Z,21.42
2022-08-20T02:17:28.066Z,21.80
2022-08-20T02:19:54.387Z,19.48
2022-08-20T02:22:20.682Z,20.92
2022-08-20T02:24:47.846Z,20.60
2022-08-20T02:27:14.143Z,22.38
2022-08-20T02:29:40.494Z,22.23
2022-08-20T02:32:28.339Z,22.95
2022-08-20T02:34:53.866Z,22.38
2022-08-20T02:37:20.176Z,20.55
2022-08-20T02:39:46.573Z,22.40
2022-08-20T02:42:12.926Z,22.92
2022-08-20T02:44:39.528Z,23.27
2022-08-20T02:47:05.819Z,22.38
2022-08-20T02:49:32.124Z,23.33
2022-08-20T02:51:58.418Z,23.02
2022-08-20T02:54:24.733Z,23.92
2022-08-20T02:56:51.984Z,23.10
2022-08-20T02:59:19.041Z,21.00
2022-08-20T03:04:12.460Z,21.90
2022-08-20T03:06:38.752Z,22.17
2022-08-20T03:09:07.648Z,23.42
2022-08-20T03:11:34.859Z,21.95
2022-08-20T03:14:01.970Z,22.30
2022-08-20T03:16:28.273Z,22.02
2022-08-20T03:18:54.748Z,22.83
2022-08-20T03:21:21.047Z,23.52
2022-08-20T03:23:47.487Z,22.88
2022-08-20T03:26:13.805Z,22.90
2022-08-20T03:28:40.103Z,20.80
2022-08-20T03:31:06.408Z,20.75
2022-08-20T03:33:32.746Z,21.30
2022-08-20T03:35:59.067Z,22.80
2022-08-20T03:38:32.841Z,21.52
2022-08-20T03:40:59.651Z,22.70
2022-08-20T03:43:25.948Z,21.27
2022-08-20T03:45:52.327Z,20.38
2022-08-20T03:48:18.633Z,22.50
2022-08-20T03:50:44.945Z,22.08
2022-08-20T03:53:13.144Z,22.13
2022-08-20T03:55:41.098Z,19.52
2022-08-20T03:58:11.716Z,18.60
2022-08-20T04:00:38.021Z,19.67
2022-08-20T04:03:04.775Z,18.10
2022-08-20T04:05:31.225Z,17.35
2022-08-20T04:08:00.107Z,17.70
2022-08-20T04:10:29.855Z,16.80
2022-08-20T04:12:56.159Z,17.63
2022-08-20T04:15:24.501Z,16.55
2022-08-20T04:17:51.182Z,16.08
2022-08-20T04:20:18.776Z,14.27
2022-08-20T04:22:56.344Z,13.50
2022-08-20T04:25:25.825Z,12.80
2022-08-20T04:27:53.299Z,11.63
2022-08-20T04:30:19.887Z,12.07
2022-08-20T04:32:46.184Z,10.38
2022-08-20T04:35:14.562Z,9.43
2022-08-20T04:37:40.856Z,9.40
2022-08-20T04:40:25.949Z,9.48
2022-08-20T04:42:53.956Z,9.25
2022-08-20T04:45:21.990Z,7.75
2022-08-20T04:50:14.506Z,7.20
2022-08-20T04:52:40.842Z,7.90
2022-08-20T04:55:07.139Z,6.03
2022-08-20T04:57:33.440Z,6.22
2022-08-20T04:59:59.723Z,5.68
2022-08-20T05:02:26.012Z,5.88
2022-08-20T05:04:52.555Z,5.85
2022-08-20T05:07:19.055Z,5.00
2022-08-20T05:09:45.359Z,5.28
2022-08-20T05:12:12.789Z,4.60
2022-08-20T05:14:39.075Z,4.65
2022-08-20T05:17:05.379Z,5.72
2022-08-20T05:19:34.776Z,4.65
2022-08-20T05:22:03.323Z,5.22
2022-08-20T05:24:29.638Z,4.75
2022-08-20T05:26:56.028Z,5.38
2022-08-20T05:29:23.176Z,6.07
2022-08-20T05:31:49.486Z,6.00
2022-08-20T05:34:15.784Z,7.05
2022-08-20T05:36:42.111Z,7.70
2022-08-20T05:39:08.910Z,8.20
2022-08-20T05:41:36.327Z,8.60
2022-08-20T05:44:02.618Z,8.35
2022-08-20T05:46:28.978Z,8.43
2022-08-20T05:48:55.279Z,9.48
2022-08-20T05:51:25.910Z,9.82
2022-08-20T05:53:52.207Z,11.02
2022-08-20T05:56:18.541Z,10.02
2022-08-20T05:58:44.860Z,10.13
2022-08-20T06:01:11.199Z,10.02
2022-08-20T06:03:56.332Z,10.40
2022-08-20T06:06:44.947Z,11.27
2022-08-20T06:09:09.177Z,10.38
2022-08-20T06:11:37.401Z,11.20
2022-08-20T06:14:03.941Z,11.18
2022-08-20T06:16:30.246Z,11.23
2022-08-20T06:18:58.233Z,12.57
2022-08-20T06:21:24.705Z,11.38
2022-08-20T06:23:56.468Z,11.32
2022-08-20T06:26:24.928Z,12.48
2022-08-20T06:28:57.135Z,12.52
2022-08-20T06:31:23.424Z,13.10
2022-08-20T06:33:49.927Z,13.43
2022-08-20T06:36:18.736Z,13.38
2022-08-20T06:38:46.086Z,13.40
2022-08-20T06:41:12.310Z,12.70
2022-08-20T06:43:38.608Z,13.38
2022-08-20T06:46:05.439Z,14.23
2022-08-20T06:48:31.730Z,11.70
2022-08-20T06:50:58.030Z,12.57
2022-08-20T06:53:24.337Z,13.80
2022-08-20T06:55:50.635Z,14.63
2022-08-20T06:58:36.126Z,15.70
2022-08-20T07:01:09.751Z,15.65
2022-08-20T07:03:38.105Z,16.48
2022-08-20T07:06:04.483Z,17.60
2022-08-20T07:08:30.784Z,18.13
2022-08-20T07:10:57.082Z,18.33
2022-08-20T07:13:23.927Z,18.02
2022-08-20T07:15:53.946Z,18.27
2022-08-20T07:18:28.109Z,18.30
2022-08-20T07:20:56.759Z,17.15
2022-08-20T07:23:23.460Z,18.13
2022-08-20T07:25:49.751Z,17.58
2022-08-20T07:28:16.091Z,18.02
2022-08-20T07:31:13.405Z,19.10
2022-08-20T07:33:42.206Z,18.27
2022-08-20T07:36:10.744Z,18.80
2022-08-20T07:38:37.087Z,18.98
2022-08-20T07:41:03.399Z,18.95
2022-08-20T07:43:29.718Z,20.13
2022-08-20T07:45:56.678Z,19.90
2022-08-20T07:48:31.740Z,18.80
2022-08-20T07:50:58.916Z,19.67
2022-08-20T07:53:25.238Z,20.15
2022-08-20T07:55:59.212Z,18.58
2022-08-20T07:58:27.703Z,17.23
2022-08-20T08:01:00.021Z,20.42
2022-08-20T08:03:39.907Z,19.27
2022-08-20T08:08:40.785Z,21.23
2022-08-20T08:11:07.090Z,20.98
2022-08-20T08:13:33.398Z,22.15
2022-08-20T08:16:01.740Z,22.23
2022-08-20T08:18:31.817Z,23.55
2022-08-20T08:20:58.294Z,23.23
2022-08-20T08:23:32.039Z,22.35
2022-08-20T08:25:59.222Z,23.75
2022-08-20T08:28:26.143Z,24.70
2022-08-20T08:30:52.479Z,24.33
2022-08-20T08:33:27.831Z,25.85
2022-08-20T08:35:54.230Z,24.25
2022-08-20T08:38:22.906Z,22.55
2022-08-20T08:40:52.203Z,22.60
2022-08-20T08:43:26.023Z,26.47
2022-08-20T08:45:58.000Z,26.08
2022-08-20T08:48:24.303Z,25.77
2022-08-20T08:50:53.959Z,24.05
2022-08-20T08:53:21.018Z,25.83
2022-08-20T08:55:47.311Z,26.38
2022-08-20T08:58:16.771Z,22.95
2022-08-20T09:00:52.788Z,25.35
2022-08-20T09:03:24.427Z,23.35
2022-08-20T09:05:50.683Z,22.50
2022-08-20T09:08:17.335Z,24.40
2022-08-20T09:10:44.961Z,24.45
2022-08-20T09:13:11.268Z,23.17
2022-08-20T09:15:37.558Z,24.48
2022-08-20T09:18:03.849Z,23.85
2022-08-20T09:20:30.157Z,24.17
2022-08-20T09:22:56.556Z,24.95
2022-08-20T09:25:23.036Z,23.70
2022-08-20T09:27:49.337Z,22.45
2022-08-20T09:32:47.068Z,20.55
2022-08-20T09:35:13.702Z,23.23
2022-08-20T09:37:40.006Z,24.30
2022-08-20T09:40:07.077Z,22.55
2022-08-20T09:42:37.532Z,22.77
2022-08-20T09:45:06.646Z,21.45
2022-08-20T09:47:37.828Z,22.38
2022-08-20T09:50:06.124Z,21.98
2022-08-20T09:52:32.435Z,22.45
2022-08-20T09:54:58.740Z,23.65
2022-08-20T09:57:25.027Z,23.48
2022-08-20T09:59:51.380Z,22.77
2022-08-20T10:02:17.695Z,23.52
2022-08-20T10:04:44.150Z,24.42
2022-08-20T10:07:10.443Z,22.67
2022-08-20T10:09:36.977Z,22.98
2022-08-20T10:12:03.283Z,22.65
2022-08-20T10:14:29.574Z,25.15
2022-08-20T10:16:55.886Z,23.73
2022-08-20T10:19:25.638Z,25.05
2022-08-20T10:21:52.003Z,24.13
2022-08-20T10:24:18.303Z,23.55
2022-08-20T10:26:44.592Z,24.85
2022-08-20T10:29:10.904Z,22.05
2022-08-20T10:31:37.194Z,23.88
2022-08-20T10:34:03.475Z,25.38
2022-08-20T10:36:29.776Z,23.40
2022-08-20T10:38:56.110Z,22.70
2022-08-20T10:41:22.422Z,25.23
2022-08-20T10:43:48.731Z,23.20
2022-08-20T10:46:15.018Z,24.20
2022-08-20T10:48:41.319Z,24.27
2022-08-20T10:51:07.612Z,25.40
2022-08-20T10:53:33.984Z,24.90
2022-08-20T10:56:00.276Z,24.98
2022-08-20T10:58:26.602Z,26.15
2022-08-20T11:01:04.056Z,26.30
2022-08-20T11:03:31.417Z,23.20
2022-08-20T11:05:57.746Z,27.58
2022-08-20T11:08:33.830Z,25.83
2022-08-20T11:11:02.239Z,25.98
2022-08-20T11:13:28.551Z,25.15
2022-08-20T11:15:54.861Z,24.98
2022-08-20T11:18:21.403Z,26.02
2022-08-20T11:20:47.733Z,26.77
2022-08-20T11:23:14.041Z,26.25
2022-08-20T11:25:40.346Z,26.85
2022-08-20T11:28:06.677Z,26.42
2022-08-20T11:30:33.015Z,26.85
2022-08-20T11:32:59.330Z,25.20
2022-08-20T11:35:42.085Z,25.88
2022-08-20T11:38:11.966Z,27.00
2022-08-20T11:40:38.487Z,28.27
2022-08-20T11:43:20.076Z,27.38
2022-08-20T11:45:46.400Z,26.33
2022-08-20T11:48:12.704Z,27.15
2022-08-20T11:50:39.011Z,26.23
2022-08-20T11:53:05.309Z,26.75
2022-08-20T11:55:34.359Z,27.27
2022-08-20T11:58:01.494Z,26.45
2022-08-20T12:00:32.238Z,24.85
2022-08-20T12:02:59.985Z,27.60
2022-08-20T12:05:27.309Z,24.37
2022-08-20T12:07:53.634Z,25.23
2022-08-20T12:10:19.952Z,24.70
2022-08-20T12:12:46.276Z,25.23
2022-08-20T12:15:12.580Z,24.83
2022-08-20T12:17:39.622Z,26.60
2022-08-20T12:20:06.071Z,25.90
2022-08-20T12:22:32.397Z,26.27
2022-08-20T12:24:58.693Z,26.13
2022-08-20T12:27:25.033Z,24.77
2022-08-20T12:29:53.148Z,24.20
2022-08-20T12:32:19.455Z,24.88
2022-08-20T12:34:45.758Z,23.65
2022-08-20T12:37:15.741Z,23.15
2022-08-20T12:39:42.317Z,24.48
2022-08-20T12:42:08.991Z,23.40
2022-08-20T12:44:35.289Z,23.10
2022-08-20T12:47:01.592Z,24.13
2022-08-20T12:49:27.894Z,24.33
2022-08-20T12:51:54.203Z,23.45
2022-08-20T12:54:20.490Z,22.55
2022-08-20T12:56:46.786Z,22.48
2022-08-20T12:59:13.070Z,21.17
2022-08-20T13:01:39.413Z,21.88
2022-08-20T13:04:05.773Z,20.40
2022-08-20T13:06:32.088Z,20.42
2022-08-20T13:08:58.395Z,22.25
2022-08-20T13:11:24.706Z,21.73
2022-08-20T13:13:52.134Z,22.15
2022-08-20T13:16:18.547Z,22.85
2022-08-20T13:18:45.460Z,22.40
2022-08-20T13:21:11.688Z,21.52
2022-08-20T13:23:37.974Z,21.65
2022-08-20T13:26:05.162Z,20.65
2022-08-20T13:28:31.598Z,21.30
2022-08-20T13:30:57.891Z,21.48
2022-08-20T13:33:26.441Z,20.80
2022-08-20T13:35:52.758Z,19.13
2022-08-20T13:38:19.064Z,22.20
2022-08-20T13:40:45.594Z,19.48
2022-08-20T13:43:15.339Z,22.33
2022-08-20T13:45:41.658Z,20.30
2022-08-20T13:48:09.098Z,18.48
2022-08-20T13:50:41.345Z,18.25
2022-08-20T13:53:07.642Z,17.98
2022-08-20T13:55:34.280Z,17.02
2022-08-20T13:58:00.589Z,14.50
2022-08-20T14:00:31.014Z,14.48
2022-08-20T14:02:58.487Z,15.90
2022-08-20T14:05:25.017Z,16.83
2022-08-20T14:07:51.313Z,18.65
2022-08-20T14:10:17.615Z,18.10
2022-08-20T14:12:44.017Z,19.33
2022-08-20T14:15:10.311Z,18.83
2022-08-20T14:17:36.647Z,19.35
2022-08-20T14:20:02.979Z,20.52
2022-08-20T14:22:29.349Z,20.80
2022-08-20T14:24:56.324Z,15.00
2022-08-20T14:27:23.754Z,14.40
2022-08-20T14:29:52.786Z,15.23
2022-08-20T14:32:19.448Z,15.23
2022-08-20T14:34:45.752Z,11.13
2022-08-20T14:37:12.038Z,10.52
2022-08-20T14:39:38.349Z,10.65
2022-08-20T14:42:04.723Z,8.52
2022-08-20T14:44:31.014Z,8.70
2022-08-20T14:46:57.395Z,8.75
2022-08-20T14:49:23.708Z,9.68
2022-08-20T14:51:50.025Z,7.60
2022-08-20T14:54:16.362Z,7.53
2022-08-20T14:56:42.684Z,9.02
2022-08-20T14:59:09.195Z,9.70
2022-08-20T15:01:35.550Z,9.15
2022-08-20T15:04:01.885Z,10.20
2022-08-20T15:06:28.173Z,9.35
2022-08-20T15:08:54.472Z,9.07
2022-08-20T15:11:20.785Z,8.88
2022-08-20T15:13:47.072Z,9.52
2022-08-20T15:16:13.359Z,9.25
2022-08-20T15:18:39.688Z,10.73
2022-08-20T15:21:05.986Z,10.82
2022-08-20T15:23:36.648Z,10.98
2022-08-20T15:26:02.954Z,10.68
2022-08-20T15:28:29.270Z,11.70
2022-08-20T15:30:55.576Z,11.05
2022-08-20T15:33:21.889Z,11.32
2022-08-20T15:35:48.193Z,12.20
2022-08-20T15:38:14.511Z,11.57
2022-08-20T15:40:40.818Z,12.73
2022-08-20T15:43:07.225Z,11.80
2022-08-20T15:45:33.526Z,10.95
2022-08-20T15:47:59.827Z,11.15
2022-08-20T15:50:26.301Z,12.35
2022-08-20T15:52:52.731Z,11.90
2022-08-20T15:55:19.070Z,11.90
2022-08-20T15:57:45.434Z,12.02
2022-08-20T16:00:12.893Z,11.68
2022-08-20T16:02:40.116Z,12.38
2022-08-20T16:05:06.409Z,11.75
2022-08-20T16:07:32.712Z,13.27
2022-08-20T16:09:59.070Z,13.82
2022-08-20T16:12:25.488Z,13.02
2022-08-20T16:14:51.821Z,13.52
2022-08-20T16:17:18.124Z,15.55
2022-08-20T16:19:44.476Z,12.45
2022-08-20T16:22:10.772Z,13.15
2022-08-20T16:24:37.084Z,16.00
2022-08-20T16:27:03.384Z,14.40
2022-08-20T16:29:29.676Z,14.90
2022-08-20T16:31:57.668Z,15.55
2022-08-20T16:34:32.865Z,14.13
2022-08-20T16:37:03.281Z,15.70
2022-08-20T16:39:30.587Z,17.25
2022-08-20T16:42:05.855Z,15.50
2022-08-20T16:44:32.468Z,16.48
2022-08-20T16:46:58.797Z,15.50
2022-08-20T16:49:25.104Z,16.35
2022-08-20T16:51:52.151Z,16.67
2022-08-20T16:54:18.645Z,15.77
2022-08-20T16:56:54.511Z,16.83
2022-08-20T16:59:26.610Z,16.80
2022-08-20T17:01:53.606Z,16.75
2022-08-20T17:04:27.982Z,16.02
2022-08-20T17:06:54.368Z,17.05
2022-08-20T17:09:21.570Z,16.83
2022-08-20T17:11:47.854Z,17.83
2022-08-20T17:14:14.237Z,17.25
2022-08-20T17:16:40.640Z,16.02
2022-08-20T17:19:06.934Z,15.48
2022-08-20T17:21:33.241Z,16.15
2022-08-20T17:23:59.540Z,15.65
2022-08-20T17:26:25.861Z,15.55
2022-08-20T17:28:52.159Z,16.13
2022-08-20T17:31:18.471Z,15.48
2022-08-20T17:33:44.777Z,15.70
2022-08-20T17:36:11.997Z,16.45
2022-08-20T17:38:38.293Z,15.35
2022-08-20T17:41:04.640Z,14.45
2022-08-20T17:43:30.972Z,16.13
2022-08-20T17:45:57.309Z,15.68
2022-08-20T17:48:23.608Z,15.32
2022-08-20T17:50:52.205Z,15.65
2022-08-20T17:53:22.665Z,15.60
2022-08-20T17:55:49.801Z,15.75
2022-08-20T17:58:16.107Z,15.60
2022-08-20T18:00:42.496Z,15.57
2022-08-20T18:03:08.821Z,15.43
2022-08-20T18:05:35.162Z,14.80
2022-08-20T18:08:02.800Z,16.55
2022-08-20T18:10:29.105Z,15.73
2022-08-20T18:12:55.820Z,14.95
2022-08-20T18:15:24.523Z,16.02
2022-08-20T18:17:51.218Z,13.90
2022-08-20T18:20:17.518Z,16.65
2022-08-20T18:22:44.496Z,16.13
2022-08-20T18:25:10.731Z,15.93
2022-08-20T18:27:37.042Z,15.93
2022-08-20T18:30:03.332Z,16.20
2022-08-20T18:32:30.069Z,16.60
2022-08-20T18:34:56.374Z,16.40
2022-08-20T18:37:22.969Z,15.18
2022-08-20T18:39:49.291Z,15.75
2022-08-20T18:42:15.599Z,17.08
2022-08-20T18:44:41.900Z,14.85
2022-08-20T18:47:10.235Z,15.10
2022-08-20T18:49:36.549Z,14.57
2022-08-20T18:52:02.850Z,15.35
2022-08-20T18:54:29.156Z,16.08
2022-08-20T18:56:55.465Z,14.55
2022-08-20T18:59:21.773Z,16.27
2022-08-20T19:01:48.087Z,15.98
2022-08-20T19:04:14.617Z,14.63
2022-08-20T19:06:40.912Z,15.35
2022-08-20T19:09:07.216Z,15.35
2022-08-20T19:11:33.504Z,16.30
2022-08-20T19:13:59.837Z,16.35
2022-08-20T19:16:26.135Z,15.70
2022-08-20T19:18:52.623Z,14.45
2022-08-20T19:21:18.925Z,16.20
2022-08-20T19:23:45.256Z,15.50
2022-08-20T19:26:24.792Z,15.35
2022-08-20T19:28:52.322Z,16.02
2022-08-20T19:31:18.647Z,15.55
2022-08-20T19:33:46.732Z,15.60
2022-08-20T19:36:13.014Z,15.88
2022-08-20T19:38:39.304Z,16.75
2022-08-20T19:41:11.140Z,16.42
2022-08-20T19:43:38.140Z,16.30
2022-08-20T19:46:04.461Z,15.05
2022-08-20T19:48:30.789Z,15.35
2022-08-20T19:50:57.098Z,15.73
2022-08-20T19:53:30.147Z,15.13
2022-08-20T19:55:57.193Z,15.98
2022-08-20T19:58:26.675Z,15.23
2022-08-20T20:00:53.974Z,15.93
2022-08-20T20:03:21.614Z,16.75
2022-08-20T20:05:47.916Z,16.08
2022-08-20T20:08:14.282Z,18.25
2022-08-20T20:10:40.572Z,15.65
2022-08-20T20:13:06.876Z,16.77
2022-08-20T20:15:33.195Z,18.80
2022-08-20T20:17:59.948Z,18.65
2022-08-20T20:20:26.237Z,18.52
2022-08-20T20:22:52.531Z,18.35
2022-08-20T20:25:18.825Z,16.73
2022-08-20T20:27:45.243Z,16.73
2022-08-20T20:30:11.565Z,17.63
2022-08-20T20:32:37.877Z,17.63
2022-08-20T20:35:04.157Z,16.60
2022-08-20T20:37:49.872Z,15.88
2022-08-20T20:40:19.018Z,16.35
2022-08-20T20:42:45.719Z,17.80
2022-08-20T20:45:12.006Z,17.60
2022-08-20T20:47:38.322Z,18.67
2022-08-20T20:50:04.624Z,18.15
2022-08-20T20:52:30.936Z,18.10
2022-08-20T20:54:57.236Z,18.27
2022-08-20T20:57:31.814Z,18.02
2022-08-20T21:00:05.153Z,18.40
2022-08-20T21:04:59.570Z,18.27
2022-08-20T21:07:25.878Z,18.38
2022-08-20T21:09:52.689Z,18.08
2022-08-20T21:12:18.988Z,16.63
2022-08-20T21:14:45.295Z,18.10
2022-08-20T21:17:11.607Z,18.17
2022-08-20T21:19:41.056Z,18.15
2022-08-20T21:22:11.714Z,18.50
2022-08-20T21:24:37.997Z,18.77
2022-08-20T21:27:04.292Z,20.67
2022-08-20T21:29:32.645Z,19.58
2022-08-20T21:31:59.519Z,18.60
2022-08-20T21:34:25.839Z,19.98
2022-08-20T21:36:52.150Z,19.13
2022-08-20T21:39:20.532Z,19.35
2022-08-20T21:41:46.836Z,19.75
2022-08-20T21:44:13.283Z,19.80
2022-08-20T21:46:39.582Z,20.13
2022-08-20T21:49:05.866Z,21.35
2022-08-20T21:51:32.495Z,19.58
2022-08-20T21:53:59.472Z,20.48
2022-08-20T21:56:25.786Z,20.80
2022-08-20T21:58:53.749Z,21.73
2022-08-20T22:01:21.649Z,20.45
2022-08-20T22:03:51.646Z,23.00
2022-08-20T22:06:18.240Z,23.42
2022-08-20T22:08:44.549Z,23.45
2022-08-20T22:11:10.858Z,25.55
2022-08-20T22:13:37.154Z,22.98
2022-08-20T22:16:03.479Z,23.00
2022-08-20T22:18:29.766Z,22.40
2022-08-20T22:20:56.076Z,24.70
2022-08-20T22:23:22.424Z,26.30
2022-08-20T22:25:48.721Z,23.13
2022-08-20T22:28:15.148Z,24.33
2022-08-20T22:30:42.453Z,24.42
2022-08-20T22:33:08.936Z,24.45
2022-08-20T22:35:35.243Z,22.75
2022-08-20T22:38:01.540Z,23.55
2022-08-20T22:40:27.853Z,22.23
2022-08-20T22:42:54.177Z,22.00
2022-08-20T22:45:20.558Z,22.50
2022-08-20T22:47:46.863Z,22.45
2022-08-20T22:50:13.179Z,22.52
2022-08-20T22:52:39.519Z,22.52
2022-08-20T22:55:06.124Z,22.00
2022-08-20T22:57:32.496Z,21.40
2022-08-20T23:00:00.841Z,21.13
2022-08-20T23:02:27.153Z,22.35
2022-08-20T23:04:53.452Z,21.15
2022-08-20T23:07:19.925Z,23.45
2022-08-20T23:09:46.279Z,21.10
2022-08-20T23:12:12.590Z,21.40
2022-08-20T23:14:38.897Z,20.35
2022-08-20T23:17:06.553Z,21.00
2022-08-20T23:19:34.406Z,21.95
2022-08-20T23:22:00.737Z,21.02
2022-08-20T23:24:27.037Z,21.70
2022-08-20T23:26:53.620Z,21.65
2022-08-20T23:29:22.285Z,19.10
2022-08-20T23:31:51.430Z,19.65
2022-08-20T23:34:17.724Z,19.65
2022-08-20T23:36:44.026Z,20.13
2022-08-20T23:39:10.336Z,19.75
2022-08-20T23:41:36.660Z,20.92
2022-08-20T23:44:25.490Z,21.08
2022-08-20T23:46:53.294Z,22.13
2022-08-20T23:49:20.950Z,21.15
2022-08-20T23:51:47.259Z,22.98
2022-08-20T23:54:13.581Z,20.95
2022-08-20T23:56:39.875Z,23.27
2022-08-20T23:59:06.203Z,22.38
